createdAt,value
2022-11-16T00:02:19.942Z,19.63
2022-11-16T00:04:46.658Z,18.13
2022-11-16T00:07:13.387Z,18.05
2022-11-16T00:09:39.965Z,18.05
2022-11-16T00:12:09.633Z,17.92
2022-11-16T00:14:36.489Z,17.50
2022-11-16T00:17:03.581Z,16.13
2022-11-16T00:21:56.846Z,15.65
2022-11-16T00:24:23.769Z,16.38
2022-11-16T00:26:50.746Z,17.27
2022-11-16T00:31:48.866Z,15.02
2022-11-16T00:34:16.261Z,14.88
2022-11-16T00:36:43.001Z,16.77
2022-11-16T00:39:14.291Z,15.13
2022-11-16T00:41:41.875Z,13.85
2022-11-16T00:44:08.702Z,15.02
2022-11-16T00:46:35.403Z,13.90
2022-11-16T00:49:01.967Z,14.93
2022-11-16T00:51:28.449Z,13.68
2022-11-16T00:53:54.963Z,15.73
2022-11-16T00:56:21.434Z,14.30
2022-11-16T00:58:47.913Z,13.40
2022-11-16T01:01:14.422Z,13.90
2022-11-16T01:03:41.072Z,15.98
2022-11-16T01:06:10.837Z,13.30
2022-11-16T01:08:38.716Z,14.38
2022-11-16T01:11:24.762Z,15.52
2022-11-16T01:13:51.839Z,13.55
2022-11-16T01:18:52.248Z,11.18
2022-11-16T01:21:19.781Z,12.05
2022-11-16T01:23:46.411Z,15.65
2022-11-16T01:26:12.956Z,13.32
2022-11-16T01:28:39.401Z,14.10
2022-11-16T01:31:06.087Z,12.90
2022-11-16T01:33:32.824Z,12.57
2022-11-16T01:35:59.290Z,14.45
2022-11-16T01:38:29.584Z,13.55
2022-11-16T01:40:57.034Z,13.52
2022-11-16T01:43:25.623Z,13.55
2022-11-16T01:45:52.873Z,14.05
2022-11-16T01:48:30.559Z,15.00
2022-11-16T01:50:57.880Z,13.02
2022-11-16T01:53:24.937Z,12.85
2022-11-16T01:58:23.177Z,13.77
2022-11-16T02:00:49.871Z,15.30
2022-11-16T02:03:20.579Z,16.23
2022-11-16T02:05:55.827Z,14.50
2022-11-16T02:09:09.730Z,16.95
2022-11-16T02:12:08.379Z,15.70
2022-11-16T02:14:43.810Z,16.15
2022-11-16T02:17:20.914Z,16.13
2022-11-16T02:19:47.315Z,14.40
2022-11-16T02:22:19.655Z,17.30
2022-11-16T02:25:01.503Z,15.73
2022-11-16T02:28:00.372Z,17.00
2022-11-16T02:30:26.857Z,16.00
2022-11-16T02:33:02.383Z,15.88
2022-11-16T02:35:34.091Z,20.08
2022-11-16T02:38:09.805Z,17.55
2022-11-16T02:40:40.047Z,17.77
2022-11-16T02:43:15.671Z,15.18
2022-11-16T02:45:45.655Z,14.82
2022-11-16T02:48:17.807Z,17.30
2022-11-16T02:50:46.137Z,18.30
2022-11-16T02:53:13.050Z,18.05
2022-11-16T02:55:39.614Z,17.70
2022-11-16T02:58:09.672Z,15.35
2022-11-16T03:00:46.729Z,17.83
2022-11-16T03:03:17.157Z,19.13
2022-11-16T03:05:47.049Z,18.38
2022-11-16T03:08:19.147Z,15.60
2022-11-16T03:11:09.417Z,19.08
2022-11-16T03:13:37.692Z,19.63
2022-11-16T03:16:11.281Z,19.50
2022-11-16T03:18:39.658Z,17.80
2022-11-16T03:21:33.102Z,17.30
2022-11-16T03:24:00.228Z,20.10
2022-11-16T03:26:32.008Z,21.95
2022-11-16T03:29:05.536Z,18.35
2022-11-16T03:31:44.430Z,18.45
2022-11-16T03:34:16.734Z,17.95
2022-11-16T03:36:46.498Z,18.35
2022-11-16T03:39:23.639Z,19.08
2022-11-16T03:41:50.914Z,19.42
2022-11-16T03:44:20.102Z,20.15
2022-11-16T03:46:47.666Z,22.10
2022-11-16T03:49:16.371Z,19.13
2022-11-16T03:51:42.970Z,21.42
2022-11-16T03:54:09.423Z,20.52
2022-11-16T03:56:35.930Z,22.23
2022-11-16T03:59:02.623Z,20.90
2022-11-16T04:01:29.207Z,22.63
2022-11-16T04:03:55.771Z,22.27
2022-11-16T04:06:40.770Z,22.08
2022-11-16T04:09:28.150Z,18.77
2022-11-16T04:12:14.135Z,22.13
2022-11-16T04:14:58.981Z,20.70
2022-11-16T04:17:44.938Z,21.20
2022-11-16T04:20:31.639Z,22.67
2022-11-16T04:23:28.217Z,22.88
2022-11-16T04:25:54.874Z,23.98
2022-11-16T04:28:28.676Z,21.95
2022-11-16T04:31:16.807Z,21.98
2022-11-16T04:34:02.180Z,23.60
2022-11-16T04:36:47.169Z,22.10
2022-11-16T04:39:13.832Z,22.02
2022-11-16T04:41:58.995Z,20.95
2022-11-16T04:44:45.410Z,19.95
2022-11-16T04:47:11.855Z,23.02
2022-11-16T04:49:38.273Z,24.88
2022-11-16T04:52:04.777Z,22.20
2022-11-16T04:54:31.206Z,22.05
2022-11-16T04:56:57.657Z,24.35
2022-11-16T04:59:24.262Z,22.25
2022-11-16T05:02:08.625Z,23.25
2022-11-16T05:04:40.031Z,24.40
2022-11-16T05:07:11.802Z,23.10
2022-11-16T05:09:43.809Z,20.83
2022-11-16T05:12:15.397Z,19.80
2022-11-16T05:14:43.028Z,21.55
2022-11-16T05:17:10.244Z,18.33
2022-11-16T05:19:55.235Z,18.98
2022-11-16T05:22:21.787Z,17.77
2022-11-16T05:24:48.450Z,18.70
2022-11-16T05:27:16.928Z,19.40
2022-11-16T05:29:43.572Z,16.58
2022-11-16T05:32:13.632Z,17.73
2022-11-16T05:34:40.151Z,16.80
2022-11-16T05:37:07.309Z,18.48
2022-11-16T05:39:43.368Z,15.07
2022-11-16T05:42:10.273Z,16.48
2022-11-16T05:44:36.741Z,15.70
2022-11-16T05:47:03.225Z,15.60
2022-11-16T05:49:29.697Z,17.60
2022-11-16T05:51:56.152Z,15.45
2022-11-16T05:54:27.241Z,16.70
2022-11-16T05:56:54.827Z,15.50
2022-11-16T05:59:22.637Z,16.75
2022-11-16T06:01:49.287Z,14.65
2022-11-16T06:04:24.114Z,15.02
2022-11-16T06:06:50.742Z,15.43
2022-11-16T06:09:17.213Z,13.65
2022-11-16T06:11:43.656Z,14.10
2022-11-16T06:14:10.152Z,13.68
2022-11-16T06:16:36.758Z,15.30
2022-11-16T06:19:03.314Z,12.90
2022-11-16T06:21:29.861Z,14.60
2022-11-16T06:23:56.308Z,13.43
2022-11-16T06:26:22.938Z,12.55
2022-11-16T06:28:49.426Z,11.23
2022-11-16T06:31:16.018Z,12.07
2022-11-16T06:33:42.521Z,12.38
2022-11-16T06:36:09.194Z,10.40
2022-11-16T06:38:35.920Z,11.32
2022-11-16T06:43:29.209Z,11.25
2022-11-16T06:45:58.311Z,11.57
2022-11-16T06:48:25.093Z,9.93
2022-11-16T06:50:52.239Z,11.95
2022-11-16T06:53:21.639Z,9.40
2022-11-16T06:55:51.353Z,10.40
2022-11-16T06:58:17.849Z,9.00
2022-11-16T07:00:44.468Z,9.82
2022-11-16T07:03:11.086Z,8.55
2022-11-16T07:05:42.993Z,9.20
2022-11-16T07:08:09.697Z,11.20
2022-11-16T07:10:37.464Z,10.55
2022-11-16T07:13:04.413Z,9.43
2022-11-16T07:15:31.316Z,10.00
2022-11-16T07:18:03.524Z,9.38
2022-11-16T07:20:30.156Z,9.50
2022-11-16T07:22:59.725Z,9.27
2022-11-16T07:25:26.169Z,9.70
2022-11-16T07:27:52.672Z,9.57
2022-11-16T07:30:19.257Z,11.23
2022-11-16T07:32:45.958Z,12.48
2022-11-16T07:35:12.372Z,11.52
2022-11-16T07:37:38.922Z,11.20
2022-11-16T07:40:05.904Z,10.98
2022-11-16T07:44:58.754Z,12.00
2022-11-16T07:47:25.220Z,13.30
2022-11-16T07:49:51.745Z,11.13
2022-11-16T07:52:18.242Z,10.70
2022-11-16T07:54:44.706Z,10.75
2022-11-16T07:57:11.338Z,11.90
2022-11-16T07:59:37.789Z,10.85
2022-11-16T08:02:04.773Z,12.85
2022-11-16T08:06:59.950Z,10.57
2022-11-16T08:09:26.410Z,11.98
2022-11-16T08:11:52.982Z,9.50
2022-11-16T08:14:19.556Z,10.07
2022-11-16T08:16:46.402Z,10.15
2022-11-16T08:19:13.075Z,10.88
2022-11-16T08:21:39.623Z,10.15
2022-11-16T08:24:06.340Z,10.88
2022-11-16T08:26:32.847Z,10.20
2022-11-16T08:28:59.344Z,9.65
2022-11-16T08:31:28.538Z,10.63
2022-11-16T08:33:56.593Z,11.43
2022-11-16T08:36:23.351Z,9.50
2022-11-16T08:38:51.519Z,10.57
2022-11-16T08:41:19.591Z,10.48
2022-11-16T08:43:47.355Z,11.02
2022-11-16T08:46:14.966Z,9.70
2022-11-16T08:48:42.167Z,9.75
2022-11-16T08:51:19.321Z,10.05
2022-11-16T08:53:48.488Z,10.60
2022-11-16T08:56:17.353Z,10.80
2022-11-16T08:58:44.415Z,10.82
2022-11-16T09:03:46.916Z,10.43
2022-11-16T09:06:14.048Z,10.77
2022-11-16T09:11:13.950Z,10.02
2022-11-16T09:13:40.432Z,10.73
2022-11-16T09:16:07.146Z,9.50
2022-11-16T09:18:34.073Z,10.48
2022-11-16T09:21:01.015Z,9.98
2022-11-16T09:23:28.160Z,9.50
2022-11-16T09:25:54.771Z,9.50
2022-11-16T09:28:22.130Z,11.30
2022-11-16T09:30:50.392Z,12.70
2022-11-16T09:33:17.321Z,11.93
2022-11-16T09:35:44.082Z,11.23
2022-11-16T09:38:11.894Z,12.60
2022-11-16T09:40:45.378Z,11.70
2022-11-16T09:43:28.659Z,11.10
2022-11-16T09:46:15.050Z,12.88
2022-11-16T09:48:41.683Z,10.55
2022-11-16T09:51:13.883Z,10.40
2022-11-16T09:53:45.256Z,9.88
2022-11-16T09:56:22.137Z,9.63
2022-11-16T09:58:55.771Z,9.32
2022-11-16T10:01:34.191Z,9.57
2022-11-16T10:04:08.741Z,8.40
2022-11-16T10:06:58.789Z,8.93
2022-11-16T10:09:25.892Z,7.78
2022-11-16T10:15:33.732Z,9.02
2022-11-16T10:18:19.557Z,8.63
2022-11-16T10:20:48.798Z,9.63
2022-11-16T10:23:30.178Z,9.52
2022-11-16T10:26:37.230Z,8.48
2022-11-16T10:29:18.176Z,7.53
2022-11-16T10:32:12.612Z,9.32
2022-11-16T10:34:52.146Z,7.38
2022-11-16T10:37:19.718Z,11.07
2022-11-16T10:39:48.821Z,9.20
2022-11-16T10:42:22.355Z,7.47
2022-11-16T10:45:13.189Z,6.72
2022-11-16T10:47:46.851Z,6.93
2022-11-16T10:50:43.954Z,6.30
2022-11-16T10:53:15.805Z,7.22
2022-11-16T10:55:42.606Z,7.00
2022-11-16T10:58:12.139Z,6.90
2022-11-16T11:00:47.981Z,6.30
2022-11-16T11:03:14.840Z,6.80
2022-11-16T11:05:49.310Z,6.70
2022-11-16T11:08:26.295Z,5.63
2022-11-16T11:11:25.203Z,6.28
2022-11-16T11:14:10.036Z,6.32
2022-11-16T11:16:37.068Z,6.22
2022-11-16T11:22:05.348Z,6.25
2022-11-16T11:24:47.766Z,6.38
2022-11-16T11:27:22.369Z,6.57
2022-11-16T11:29:53.965Z,5.97
2022-11-16T11:32:24.496Z,7.10
2022-11-16T11:34:54.634Z,5.63
2022-11-16T11:37:25.455Z,6.40
2022-11-16T11:40:25.445Z,6.63
2022-11-16T11:42:53.796Z,6.60
2022-11-16T11:45:22.993Z,6.97
2022-11-16T11:48:01.290Z,7.30
2022-11-16T11:50:45.881Z,6.53
2022-11-16T11:53:35.003Z,7.00
2022-11-16T11:56:01.797Z,5.78
2022-11-16T11:58:38.649Z,6.88
2022-11-16T12:01:26.854Z,8.52
2022-11-16T12:04:38.660Z,8.77
2022-11-16T12:07:27.550Z,6.65
2022-11-16T12:10:18.212Z,7.50
2022-11-16T12:13:05.522Z,7.47
2022-11-16T12:15:37.958Z,7.22
2022-11-16T12:18:26.410Z,7.10
2022-11-16T12:20:52.767Z,7.53
2022-11-16T12:23:43.968Z,9.38
2022-11-16T12:26:32.925Z,6.68
2022-11-16T12:29:25.533Z,6.18
2022-11-16T12:32:10.675Z,7.50
2022-11-16T12:34:55.846Z,7.70
2022-11-16T12:37:49.393Z,7.47
2022-11-16T12:40:32.325Z,6.82
2022-11-16T12:43:19.604Z,7.43
2022-11-16T12:46:14.464Z,9.15
2022-11-16T12:48:49.827Z,8.32
2022-11-16T12:51:55.196Z,8.65
2022-11-16T12:55:24.294Z,7.53
2022-11-16T12:58:00.226Z,7.80
2022-11-16T13:00:29.070Z,7.28
2022-11-16T13:03:18.687Z,8.35
2022-11-16T13:06:02.407Z,9.00
2022-11-16T13:08:43.811Z,8.77
2022-11-16T13:11:35.598Z,8.38
2022-11-16T13:14:06.494Z,8.10
2022-11-16T13:16:34.224Z,9.38
2022-11-16T13:19:03.919Z,8.57
2022-11-16T13:22:00.042Z,7.93
2022-11-16T13:24:40.618Z,11.15
2022-11-16T13:27:23.101Z,9.27
2022-11-16T13:30:01.781Z,8.48
2022-11-16T13:32:46.428Z,7.93
2022-11-16T13:35:17.964Z,9.02
2022-11-16T13:37:52.175Z,9.38
2022-11-16T13:40:28.533Z,9.77
2022-11-16T13:43:03.159Z,10.43
2022-11-16T13:45:39.079Z,9.23
2022-11-16T13:48:19.516Z,11.15
2022-11-16T13:50:55.850Z,9.60
2022-11-16T13:56:28.959Z,42.42
2022-11-16T13:58:57.539Z,50.58
2022-11-16T14:01:24.182Z,58.05
2022-11-16T14:03:52.319Z,63.53
2022-11-16T14:06:24.501Z,54.08
2022-11-16T14:08:57.948Z,58.97
2022-11-16T14:11:37.779Z,54.78
2022-11-16T14:14:33.834Z,57.95
2022-11-16T14:17:02.347Z,55.03
2022-11-16T14:19:48.586Z,55.42
2022-11-16T14:22:25.344Z,51.60
2022-11-16T14:27:59.670Z,53.97
2022-11-16T14:30:43.359Z,50.15
2022-11-16T14:33:17.618Z,50.03
2022-11-16T14:35:52.281Z,49.10
2022-11-16T14:38:27.667Z,44.50
2022-11-16T14:40:59.701Z,48.70
2022-11-16T14:43:33.239Z,44.40
2022-11-16T14:46:13.777Z,54.58
2022-11-16T14:48:45.066Z,49.30
2022-11-16T14:51:17.345Z,49.63
2022-11-16T14:53:55.122Z,44.83
2022-11-16T14:56:22.022Z,44.67
2022-11-16T14:58:59.628Z,43.10
2022-11-16T15:01:40.003Z,45.05
2022-11-16T15:04:10.313Z,46.38
2022-11-16T15:06:49.924Z,49.15
2022-11-16T15:09:29.943Z,53.15
2022-11-16T15:12:16.264Z,57.13
2022-11-16T15:14:56.111Z,47.28
2022-11-16T15:17:31.751Z,50.28
2022-11-16T15:20:05.492Z,48.57
2022-11-16T15:22:40.298Z,45.45
2022-11-16T15:25:25.165Z,43.80
2022-11-16T15:27:52.428Z,43.97
2022-11-16T15:30:22.393Z,41.10
2022-11-16T15:32:51.355Z,43.60
2022-11-16T15:35:22.270Z,40.53
2022-11-16T15:37:59.823Z,46.08
2022-11-16T15:40:26.756Z,43.63
2022-11-16T15:42:53.820Z,41.63
2022-11-16T15:47:55.437Z,41.40
2022-11-16T15:50:23.544Z,38.65
2022-11-16T15:52:55.463Z,42.53
2022-11-16T15:55:28.944Z,40.45
2022-11-16T15:58:03.609Z,36.60
2022-11-16T16:00:31.770Z,39.60
2022-11-16T16:03:26.763Z,37.15
2022-11-16T16:05:55.014Z,35.78
2022-11-16T16:08:34.702Z,34.45
2022-11-16T16:11:06.234Z,37.28
2022-11-16T16:13:44.920Z,34.97
2022-11-16T16:16:19.976Z,33.70
2022-11-16T16:18:46.688Z,33.28
2022-11-16T16:21:14.271Z,33.60
2022-11-16T16:23:54.315Z,32.20
2022-11-16T16:26:22.307Z,31.67
2022-11-16T16:28:50.400Z,30.52
2022-11-16T16:31:18.734Z,30.50
2022-11-16T16:33:45.612Z,29.45
2022-11-16T16:36:13.611Z,31.60
2022-11-16T16:38:40.286Z,29.48
2022-11-16T16:41:07.340Z,30.52
2022-11-16T16:46:02.281Z,27.95
2022-11-16T16:48:29.128Z,26.25
2022-11-16T16:50:55.700Z,28.48
2022-11-16T16:53:22.254Z,25.80
2022-11-16T16:55:49.014Z,26.02
2022-11-16T16:58:16.191Z,25.00
2022-11-16T17:00:43.052Z,23.73
2022-11-16T17:03:09.813Z,26.42
2022-11-16T17:05:37.273Z,22.48
2022-11-16T17:08:03.924Z,19.80
2022-11-16T17:10:30.436Z,19.20
2022-11-16T17:12:57.610Z,19.33
2022-11-16T17:15:24.797Z,20.25
2022-11-16T17:17:51.387Z,16.73
2022-11-16T17:20:17.927Z,16.23
2022-11-16T17:22:44.556Z,16.50
2022-11-16T17:25:11.085Z,16.27
2022-11-16T17:27:37.596Z,17.98
2022-11-16T17:30:04.729Z,15.20
2022-11-16T17:32:31.305Z,15.48
2022-11-16T17:34:57.843Z,12.50
2022-11-16T17:37:24.367Z,12.68
2022-11-16T17:39:50.926Z,9.30
2022-11-16T17:42:17.453Z,10.30
2022-11-16T17:44:44.051Z,8.90
2022-11-16T17:47:10.780Z,8.48
2022-11-16T17:49:37.347Z,7.25
2022-11-16T17:52:04.972Z,8.00
2022-11-16T17:54:31.922Z,8.70
2022-11-16T17:56:58.445Z,7.65
2022-11-16T17:59:29.187Z,6.68
2022-11-16T18:01:58.029Z,6.22
2022-11-16T18:04:25.109Z,7.20
2022-11-16T18:06:52.789Z,6.45
2022-11-16T18:09:19.386Z,6.32
2022-11-16T18:11:46.042Z,8.75
2022-11-16T18:14:12.953Z,7.57
2022-11-16T18:16:42.356Z,6.78
2022-11-16T18:19:09.930Z,6.90
2022-11-16T18:21:40.391Z,6.65
2022-11-16T18:24:07.412Z,7.75
2022-11-16T18:29:00.682Z,6.57
2022-11-16T18:31:27.227Z,6.57
2022-11-16T18:33:53.894Z,6.07
2022-11-16T18:36:21.671Z,5.43
2022-11-16T18:38:48.390Z,6.68
2022-11-16T18:41:21.045Z,7.43
2022-11-16T18:43:50.313Z,5.68
2022-11-16T18:46:18.835Z,6.40
2022-11-16T18:48:46.848Z,6.30
2022-11-16T18:51:14.512Z,5.47
2022-11-16T18:53:41.065Z,6.45
2022-11-16T18:56:08.577Z,8.02
2022-11-16T18:58:49.956Z,6.60
2022-11-16T19:01:19.197Z,5.50
2022-11-16T19:03:46.204Z,5.50
2022-11-16T19:06:14.915Z,6.18
2022-11-16T19:08:43.378Z,6.38
2022-11-16T19:11:12.954Z,6.07
2022-11-16T19:13:40.755Z,6.03
2022-11-16T19:16:08.544Z,5.93
2022-11-16T19:18:36.522Z,6.45
2022-11-16T19:21:13.692Z,5.25
2022-11-16T19:23:42.974Z,6.18
2022-11-16T19:26:10.381Z,7.80
2022-11-16T19:28:38.031Z,6.40
2022-11-16T19:31:13.043Z,5.43
2022-11-16T19:33:40.771Z,6.85
2022-11-16T19:36:13.449Z,5.55
2022-11-16T19:38:40.895Z,5.82
2022-11-16T19:41:08.500Z,5.25
2022-11-16T19:43:35.651Z,6.30
2022-11-16T19:46:07.941Z,5.10
2022-11-16T19:48:35.134Z,5.35
2022-11-16T19:51:13.105Z,5.28
2022-11-16T19:53:40.454Z,4.50
2022-11-16T19:56:10.419Z,4.90
2022-11-16T19:58:38.576Z,5.07
2022-11-16T20:01:15.862Z,7.57
2022-11-16T20:03:42.528Z,5.15
2022-11-16T20:06:10.385Z,4.50
2022-11-16T20:08:38.250Z,5.32
2022-11-16T20:11:15.616Z,5.28
2022-11-16T20:13:42.619Z,4.43
2022-11-16T20:18:38.559Z,5.45
2022-11-16T20:21:06.050Z,5.20
2022-11-16T20:23:36.313Z,4.72
2022-11-16T20:26:08.153Z,5.60
2022-11-16T20:28:39.960Z,5.00
2022-11-16T20:31:15.298Z,6.45
2022-11-16T20:33:42.247Z,5.32
2022-11-16T20:36:12.021Z,4.93
2022-11-16T20:38:39.320Z,4.95
2022-11-16T20:41:11.988Z,6.05
2022-11-16T20:43:39.710Z,7.43
2022-11-16T20:46:08.853Z,5.07
2022-11-16T20:48:36.394Z,6.32
2022-11-16T20:51:03.453Z,6.60
2022-11-16T20:55:57.564Z,6.35
2022-11-16T20:58:24.803Z,6.53
2022-11-16T21:00:51.489Z,6.05
2022-11-16T21:03:18.078Z,7.47
2022-11-16T21:05:46.354Z,6.65
2022-11-16T21:08:13.298Z,7.45
2022-11-16T21:10:39.925Z,6.22
2022-11-16T21:13:30.182Z,8.00
2022-11-16T21:16:22.759Z,7.90
2022-11-16T21:18:49.302Z,6.22
2022-11-16T21:21:15.918Z,7.18
2022-11-16T21:23:45.133Z,6.22
2022-11-16T21:26:13.901Z,5.57
2022-11-16T21:28:41.314Z,6.72
2022-11-16T21:31:11.286Z,7.05
2022-11-16T21:33:38.083Z,6.80
2022-11-16T21:38:32.786Z,7.15
2022-11-16T21:40:59.367Z,7.82
2022-11-16T21:43:26.610Z,7.88
2022-11-16T21:45:53.286Z,7.85
2022-11-16T21:48:19.807Z,6.68
2022-11-16T21:50:46.387Z,6.78
2022-11-16T21:53:12.936Z,7.68
2022-11-16T21:55:39.432Z,7.57
2022-11-16T21:58:06.122Z,7.60
2022-11-16T22:00:32.665Z,8.05
2022-11-16T22:02:59.260Z,7.60
2022-11-16T22:05:44.220Z,7.13
2022-11-16T22:08:14.135Z,8.25
2022-11-16T22:10:40.693Z,8.18
2022-11-16T22:13:07.282Z,7.38
2022-11-16T22:15:33.810Z,6.90
2022-11-16T22:18:01.463Z,7.75
2022-11-16T22:20:27.992Z,7.57
2022-11-16T22:22:54.531Z,7.65
2022-11-16T22:25:21.124Z,8.13
2022-11-16T22:28:13.865Z,6.90
2022-11-16T22:30:35.064Z,6.75
2022-11-16T22:33:01.605Z,6.53
2022-11-16T22:35:28.091Z,6.10
2022-11-16T22:37:54.640Z,6.97
2022-11-16T22:40:21.134Z,6.20
2022-11-16T22:42:47.657Z,6.85
2022-11-16T22:45:14.174Z,5.90
2022-11-16T22:47:40.773Z,6.13
2022-11-16T22:50:07.409Z,6.80
2022-11-16T22:52:33.953Z,7.25
2022-11-16T22:55:00.490Z,7.05
2022-11-16T22:57:26.994Z,5.95
2022-11-16T22:59:53.644Z,5.70
2022-11-16T23:02:20.152Z,5.93
2022-11-16T23:04:46.651Z,7.13
2022-11-16T23:07:13.254Z,5.93
2022-11-16T23:09:39.804Z,6.05
2022-11-16T23:12:24.876Z,5.70
2022-11-16T23:15:09.878Z,6.00
2022-11-16T23:17:36.468Z,6.75
2022-11-16T23:20:22.151Z,5.60
2022-11-16T23:23:07.291Z,5.28
2022-11-16T23:25:52.620Z,6.18
2022-11-16T23:28:20.265Z,6.22
2022-11-16T23:30:46.783Z,5.82
2022-11-16T23:33:13.768Z,5.40
2022-11-16T23:35:40.264Z,4.88
2022-11-16T23:38:07.895Z,3.88
2022-11-16T23:40:37.275Z,5.00
2022-11-16T23:43:23.194Z,4.93
2022-11-16T23:45:50.662Z,5.57
2022-11-16T23:48:18.130Z,4.38
2022-11-16T23:50:45.867Z,5.03
2022-11-16T23:53:13.127Z,4.85
2022-11-16T23:55:40.397Z,4.00
2022-11-16T23:58:11.303Z,4.30
